sensor_id;sensor_type;location;lat;lon;timestamp;P1;durP1;ratioP1;P2;durP2;ratioP2
809;SDS011;387;48.772;9.186;2024-02-28T00:02:08;32.80;;;17.50;;
809;SDS011;387;48.772;9.186;2024-02-28T00:04:34;34.07;;;17.60;;
809;SDS011;387;48.772;9.186;2024-02-28T00:07:00;35.80;;;18.60;;
809;SDS011;387;48.772;9.186;2024-02-28T00:09:26;36.10;;;17.83;;
809;SDS011;387;48.772;9.186;2024-02-28T00:11:51;33.20;;;17.17;;
809;SDS011;387;48.772;9.186;2024-02-28T00:14:17;35.03;;;17.93;;
809;SDS011;387;48.772;9.186;2024-02-28T00:16:43;38.60;;;18.53;;
809;SDS011;387;48.772;9.186;2024-02-28T00:19:10;38.07;;;18.70;;
809;SDS011;387;48.772;9.186;2024-02-28T00:21:39;31.10;;;17.00;;
809;SDS011;387;48.772;9.186;2024-02-28T00:24:05;36.53;;;16.63;;
809;SDS011;387;48.772;9.186;2024-02-28T00:26:31;36.30;;;18.47;;
809;SDS011;387;48.772;9.186;2024-02-28T00:28:57;34.57;;;16.30;;
809;SDS011;387;48.772;9.186;2024-02-28T00:31:22;33.70;;;16.90;;
809;SDS011;387;48.772;9.186;2024-02-28T00:33:48;30.77;;;15.17;;
809;SDS011;387;48.772;9.186;2024-02-28T00:36:14;30.30;;;16.30;;
809;SDS011;387;48.772;9.186;2024-02-28T00:38:40;32.50;;;17.40;;
809;SDS011;387;48.772;9.186;2024-02-28T00:41:06;40.07;;;17.47;;
809;SDS011;387;48.772;9.186;2024-02-28T00:43:31;40.60;;;17.93;;
809;SDS011;387;48.772;9.186;2024-02-28T00:45:57;38.33;;;18.10;;
809;SDS011;387;48.772;9.186;2024-02-28T00:48:23;38.97;;;18.20;;
809;SDS011;387;48.772;9.186;2024-02-28T00:50:50;36.77;;;18.30;;
809;SDS011;387;48.772;9.186;2024-02-28T00:53:15;36.00;;;17.37;;
809;SDS011;387;48.772;9.186;2024-02-28T00:55:42;32.97;;;17.00;;
809;SDS011;387;48.772;9.186;2024-02-28T00:58:07;36.47;;;16.80;;
809;SDS011;387;48.772;9.186;2024-02-28T01:00:33;34.83;;;16.53;;
809;SDS011;387;48.772;9.186;2024-02-28T01:02:58;34.83;;;15.67;;
809;SDS011;387;48.772;9.186;2024-02-28T01:05:24;37.00;;;17.93;;
809;SDS011;387;48.772;9.186;2024-02-28T01:07:49;37.87;;;17.23;;
809;SDS011;387;48.772;9.186;2024-02-28T01:10:15;34.50;;;16.67;;
809;SDS011;387;48.772;9.186;2024-02-28T01:12:41;38.10;;;18.00;;
809;SDS011;387;48.772;9.186;2024-02-28T01:15:06;34.93;;;17.90;;
809;SDS011;387;48.772;9.186;2024-02-28T01:17:32;34.83;;;16.77;;
809;SDS011;387;48.772;9.186;2024-02-28T01:19:58;43.17;;;19.10;;
809;SDS011;387;48.772;9.186;2024-02-28T01:22:23;35.60;;;17.43;;
809;SDS011;387;48.772;9.186;2024-02-28T01:24:49;35.83;;;16.87;;
809;SDS011;387;48.772;9.186;2024-02-28T01:27:14;38.30;;;19.23;;
809;SDS011;387;48.772;9.186;2024-02-28T01:29:40;44.90;;;19.43;;
809;SDS011;387;48.772;9.186;2024-02-28T01:32:06;43.43;;;19.60;;
809;SDS011;387;48.772;9.186;2024-02-28T01:34:32;39.87;;;18.80;;
809;SDS011;387;48.772;9.186;2024-02-28T01:36:57;35.97;;;18.33;;
809;SDS011;387;48.772;9.186;2024-02-28T01:39:23;41.73;;;19.70;;
809;SDS011;387;48.772;9.186;2024-02-28T01:41:54;35.30;;;18.00;;
809;SDS011;387;48.772;9.186;2024-02-28T01:44:20;36.37;;;18.67;;
809;SDS011;387;48.772;9.186;2024-02-28T01:46:46;38.60;;;18.87;;
809;SDS011;387;48.772;9.186;2024-02-28T01:49:12;43.93;;;20.97;;
809;SDS011;387;48.772;9.186;2024-02-28T01:51:39;44.57;;;20.80;;
809;SDS011;387;48.772;9.186;2024-02-28T01:54:06;35.80;;;18.43;;
809;SDS011;387;48.772;9.186;2024-02-28T01:56:32;41.73;;;19.40;;
809;SDS011;387;48.772;9.186;2024-02-28T01:58:59;41.00;;;20.73;;
809;SDS011;387;48.772;9.186;2024-02-28T02:01:26;45.83;;;18.60;;
809;SDS011;387;48.772;9.186;2024-02-28T02:03:53;40.13;;;17.57;;
809;SDS011;387;48.772;9.186;2024-02-28T02:06:19;42.73;;;20.53;;
809;SDS011;387;48.772;9.186;2024-02-28T02:08:45;42.83;;;19.70;;
809;SDS011;387;48.772;9.186;2024-02-28T02:11:11;41.00;;;20.10;;
809;SDS011;387;48.772;9.186;2024-02-28T02:13:52;42.87;;;19.67;;
809;SDS011;387;48.772;9.186;2024-02-28T02:16:18;43.13;;;19.53;;
809;SDS011;387;48.772;9.186;2024-02-28T02:18:44;39.10;;;19.27;;
809;SDS011;387;48.772;9.186;2024-02-28T02:21:14;40.83;;;19.70;;
809;SDS011;387;48.772;9.186;2024-02-28T02:23:42;41.97;;;19.60;;
809;SDS011;387;48.772;9.186;2024-02-28T02:26:08;43.90;;;19.63;;
809;SDS011;387;48.772;9.186;2024-02-28T02:28:34;40.80;;;19.57;;
809;SDS011;387;48.772;9.186;2024-02-28T02:30:59;44.37;;;19.73;;
809;SDS011;387;48.772;9.186;2024-02-28T02:33:25;45.87;;;19.53;;
809;SDS011;387;48.772;9.186;2024-02-28T02:35:54;43.43;;;19.40;;
809;SDS011;387;48.772;9.186;2024-02-28T02:38:19;40.40;;;20.03;;
809;SDS011;387;48.772;9.186;2024-02-28T02:40:48;36.70;;;18.23;;
809;SDS011;387;48.772;9.186;2024-02-28T02:43:15;40.40;;;19.43;;
809;SDS011;387;48.772;9.186;2024-02-28T02:45:40;38.50;;;19.30;;
809;SDS011;387;48.772;9.186;2024-02-28T02:48:06;38.73;;;16.47;;
809;SDS011;387;48.772;9.186;2024-02-28T02:50:32;35.37;;;19.23;;
809;SDS011;387;48.772;9.186;2024-02-28T02:52:57;42.23;;;18.93;;
809;SDS011;387;48.772;9.186;2024-02-28T02:55:23;42.93;;;18.73;;
809;SDS011;387;48.772;9.186;2024-02-28T02:57:48;38.67;;;19.47;;
809;SDS011;387;48.772;9.186;2024-02-28T03:00:14;34.90;;;17.20;;
809;SDS011;387;48.772;9.186;2024-02-28T03:02:40;38.13;;;19.27;;
809;SDS011;387;48.772;9.186;2024-02-28T03:05:05;35.77;;;17.67;;
809;SDS011;387;48.772;9.186;2024-02-28T03:07:32;32.83;;;16.50;;
809;SDS011;387;48.772;9.186;2024-02-28T03:09:58;36.90;;;18.50;;
809;SDS011;387;48.772;9.186;2024-02-28T03:12:24;37.27;;;17.57;;
809;SDS011;387;48.772;9.186;2024-02-28T03:14:50;44.50;;;19.10;;
809;SDS011;387;48.772;9.186;2024-02-28T03:17:15;37.23;;;17.47;;
809;SDS011;387;48.772;9.186;2024-02-28T03:19:41;35.10;;;18.23;;
809;SDS011;387;48.772;9.186;2024-02-28T03:22:07;44.03;;;19.53;;
809;SDS011;387;48.772;9.186;2024-02-28T03:24:32;48.53;;;21.13;;
809;SDS011;387;48.772;9.186;2024-02-28T03:27:00;42.17;;;18.70;;
809;SDS011;387;48.772;9.186;2024-02-28T03:29:27;37.57;;;18.43;;
809;SDS011;387;48.772;9.186;2024-02-28T03:31:52;37.47;;;18.60;;
809;SDS011;387;48.772;9.186;2024-02-28T03:34:18;43.13;;;19.00;;
809;SDS011;387;48.772;9.186;2024-02-28T03:36:44;43.77;;;20.40;;
809;SDS011;387;48.772;9.186;2024-02-28T03:39:09;44.20;;;19.13;;
809;SDS011;387;48.772;9.186;2024-02-28T03:41:35;39.93;;;17.87;;
809;SDS011;387;48.772;9.186;2024-02-28T03:44:01;42.77;;;19.87;;
809;SDS011;387;48.772;9.186;2024-02-28T03:46:26;41.43;;;19.60;;
809;SDS011;387;48.772;9.186;2024-02-28T03:48:52;45.50;;;20.20;;
809;SDS011;387;48.772;9.186;2024-02-28T03:51:17;43.60;;;17.57;;
809;SDS011;387;48.772;9.186;2024-02-28T03:53:43;45.37;;;18.60;;
809;SDS011;387;48.772;9.186;2024-02-28T03:56:09;46.13;;;21.07;;
809;SDS011;387;48.772;9.186;2024-02-28T03:58:35;41.77;;;19.63;;
809;SDS011;387;48.772;9.186;2024-02-28T04:01:00;46.90;;;20.50;;
809;SDS011;387;48.772;9.186;2024-02-28T04:03:26;40.70;;;19.00;;
809;SDS011;387;48.772;9.186;2024-02-28T04:05:51;40.17;;;19.27;;
809;SDS011;387;48.772;9.186;2024-02-28T04:08:17;36.80;;;17.53;;
809;SDS011;387;48.772;9.186;2024-02-28T04:10:43;40.33;;;18.67;;
809;SDS011;387;48.772;9.186;2024-02-28T04:13:09;40.50;;;17.30;;
809;SDS011;387;48.772;9.186;2024-02-28T04:15:34;42.73;;;19.93;;
809;SDS011;387;48.772;9.186;2024-02-28T04:18:00;47.37;;;19.73;;
809;SDS011;387;48.772;9.186;2024-02-28T04:20:26;36.50;;;17.73;;
809;SDS011;387;48.772;9.186;2024-02-28T04:22:51;41.10;;;18.80;;
809;SDS011;387;48.772;9.186;2024-02-28T04:25:17;42.60;;;18.87;;
809;SDS011;387;48.772;9.186;2024-02-28T04:27:43;44.70;;;20.57;;
809;SDS011;387;48.772;9.186;2024-02-28T04:30:09;41.17;;;18.93;;
809;SDS011;387;48.772;9.186;2024-02-28T04:32:35;38.70;;;19.20;;
809;SDS011;387;48.772;9.186;2024-02-28T04:35:01;47.10;;;18.97;;
809;SDS011;387;48.772;9.186;2024-02-28T04:37:28;40.50;;;18.67;;
809;SDS011;387;48.772;9.186;2024-02-28T04:39:53;38.20;;;18.50;;
809;SDS011;387;48.772;9.186;2024-02-28T04:42:19;40.80;;;18.53;;
809;SDS011;387;48.772;9.186;2024-02-28T04:44:45;39.63;;;18.50;;
809;SDS011;387;48.772;9.186;2024-02-28T04:47:10;41.00;;;17.43;;
809;SDS011;387;48.772;9.186;2024-02-28T04:49:37;38.90;;;19.03;;
809;SDS011;387;48.772;9.186;2024-02-28T04:52:03;38.53;;;18.90;;
809;SDS011;387;48.772;9.186;2024-02-28T04:54:30;34.37;;;18.27;;
809;SDS011;387;48.772;9.186;2024-02-28T04:56:55;31.90;;;16.40;;
809;SDS011;387;48.772;9.186;2024-02-28T04:59:21;40.50;;;18.20;;
809;SDS011;387;48.772;9.186;2024-02-28T05:01:47;38.03;;;17.30;;
809;SDS011;387;48.772;9.186;2024-02-28T05:04:13;42.17;;;18.23;;
809;SDS011;387;48.772;9.186;2024-02-28T05:06:39;38.50;;;17.20;;
809;SDS011;387;48.772;9.186;2024-02-28T05:09:04;42.43;;;18.33;;
809;SDS011;387;48.772;9.186;2024-02-28T05:11:30;42.50;;;19.10;;
809;SDS011;387;48.772;9.186;2024-02-28T05:13:56;43.10;;;19.07;;
809;SDS011;387;48.772;9.186;2024-02-28T05:16:21;36.97;;;18.37;;
809;SDS011;387;48.772;9.186;2024-02-28T05:18:47;43.57;;;19.83;;
809;SDS011;387;48.772;9.186;2024-02-28T05:21:13;44.03;;;19.83;;
809;SDS011;387;48.772;9.186;2024-02-28T05:23:42;37.50;;;17.67;;
809;SDS011;387;48.772;9.186;2024-02-28T05:26:07;38.97;;;19.00;;
809;SDS011;387;48.772;9.186;2024-02-28T05:28:33;44.67;;;19.13;;
809;SDS011;387;48.772;9.186;2024-02-28T05:31:25;42.90;;;19.50;;
809;SDS011;387;48.772;9.186;2024-02-28T05:33:50;49.80;;;19.13;;
809;SDS011;387;48.772;9.186;2024-02-28T05:36:17;37.70;;;17.27;;
809;SDS011;387;48.772;9.186;2024-02-28T05:38:43;42.10;;;18.43;;
809;SDS011;387;48.772;9.186;2024-02-28T05:41:09;37.23;;;17.97;;
809;SDS011;387;48.772;9.186;2024-02-28T05:43:36;38.53;;;18.73;;
809;SDS011;387;48.772;9.186;2024-02-28T05:46:03;39.30;;;18.80;;
809;SDS011;387;48.772;9.186;2024-02-28T05:48:28;44.43;;;20.20;;
809;SDS011;387;48.772;9.186;2024-02-28T05:50:54;41.47;;;18.93;;
809;SDS011;387;48.772;9.186;2024-02-28T05:53:19;40.60;;;19.00;;
809;SDS011;387;48.772;9.186;2024-02-28T05:55:46;43.37;;;19.70;;
809;SDS011;387;48.772;9.186;2024-02-28T05:58:11;37.00;;;18.60;;
809;SDS011;387;48.772;9.186;2024-02-28T06:00:38;37.37;;;18.13;;
809;SDS011;387;48.772;9.186;2024-02-28T06:03:04;40.83;;;18.77;;
809;SDS011;387;48.772;9.186;2024-02-28T06:05:30;38.43;;;18.63;;
809;SDS011;387;48.772;9.186;2024-02-28T06:07:56;42.47;;;19.97;;
809;SDS011;387;48.772;9.186;2024-02-28T06:10:21;41.87;;;19.20;;
809;SDS011;387;48.772;9.186;2024-02-28T06:12:47;41.47;;;19.97;;
809;SDS011;387;48.772;9.186;2024-02-28T06:15:12;42.47;;;20.20;;
809;SDS011;387;48.772;9.186;2024-02-28T06:17:38;33.93;;;17.83;;
809;SDS011;387;48.772;9.186;2024-02-28T06:20:04;44.07;;;20.80;;
809;SDS011;387;48.772;9.186;2024-02-28T06:22:31;48.60;;;21.37;;
809;SDS011;387;48.772;9.186;2024-02-28T06:24:56;40.77;;;19.37;;
809;SDS011;387;48.772;9.186;2024-02-28T06:27:22;39.60;;;19.07;;
809;SDS011;387;48.772;9.186;2024-02-28T06:29:48;50.47;;;21.57;;
809;SDS011;387;48.772;9.186;2024-02-28T06:32:14;43.93;;;21.40;;
809;SDS011;387;48.772;9.186;2024-02-28T06:34:39;41.30;;;19.27;;
809;SDS011;387;48.772;9.186;2024-02-28T06:37:05;44.20;;;20.07;;
809;SDS011;387;48.772;9.186;2024-02-28T06:39:31;45.43;;;19.73;;
809;SDS011;387;48.772;9.186;2024-02-28T06:41:56;41.77;;;19.10;;
809;SDS011;387;48.772;9.186;2024-02-28T06:44:22;41.20;;;19.23;;
809;SDS011;387;48.772;9.186;2024-02-28T06:46:47;45.57;;;21.00;;
809;SDS011;387;48.772;9.186;2024-02-28T06:49:13;46.90;;;20.00;;
809;SDS011;387;48.772;9.186;2024-02-28T06:51:38;37.17;;;20.40;;
809;SDS011;387;48.772;9.186;2024-02-28T06:54:04;41.10;;;20.53;;
809;SDS011;387;48.772;9.186;2024-02-28T06:56:30;49.63;;;20.60;;
809;SDS011;387;48.772;9.186;2024-02-28T06:58:56;41.53;;;18.90;;
809;SDS011;387;48.772;9.186;2024-02-28T07:01:22;40.03;;;19.23;;
809;SDS011;387;48.772;9.186;2024-02-28T07:03:47;37.67;;;19.50;;
809;SDS011;387;48.772;9.186;2024-02-28T07:06:13;41.43;;;20.47;;
809;SDS011;387;48.772;9.186;2024-02-28T07:08:38;43.40;;;21.13;;
809;SDS011;387;48.772;9.186;2024-02-28T07:11:04;35.60;;;17.77;;
809;SDS011;387;48.772;9.186;2024-02-28T07:13:30;40.83;;;18.73;;
809;SDS011;387;48.772;9.186;2024-02-28T07:15:55;45.07;;;17.63;;
809;SDS011;387;48.772;9.186;2024-02-28T07:18:22;40.53;;;20.30;;
809;SDS011;387;48.772;9.186;2024-02-28T07:20:50;36.17;;;18.03;;
809;SDS011;387;48.772;9.186;2024-02-28T07:23:17;38.07;;;19.33;;
809;SDS011;387;48.772;9.186;2024-02-28T07:25:42;39.13;;;20.20;;
809;SDS011;387;48.772;9.186;2024-02-28T07:28:08;42.43;;;20.43;;
809;SDS011;387;48.772;9.186;2024-02-28T07:30:34;43.53;;;20.90;;
809;SDS011;387;48.772;9.186;2024-02-28T07:33:00;47.47;;;20.50;;
809;SDS011;387;48.772;9.186;2024-02-28T07:35:26;37.87;;;18.70;;
809;SDS011;387;48.772;9.186;2024-02-28T07:37:51;41.70;;;18.80;;
809;SDS011;387;48.772;9.186;2024-02-28T07:40:17;45.20;;;20.60;;
809;SDS011;387;48.772;9.186;2024-02-28T07:42:43;40.80;;;19.67;;
809;SDS011;387;48.772;9.186;2024-02-28T07:45:09;42.80;;;21.40;;
809;SDS011;387;48.772;9.186;2024-02-28T07:47:35;44.03;;;19.83;;
809;SDS011;387;48.772;9.186;2024-02-28T07:50:00;48.50;;;20.83;;
809;SDS011;387;48.772;9.186;2024-02-28T07:52:26;48.40;;;19.97;;
809;SDS011;387;48.772;9.186;2024-02-28T07:54:51;53.17;;;22.63;;
809;SDS011;387;48.772;9.186;2024-02-28T07:57:17;49.33;;;20.30;;
809;SDS011;387;48.772;9.186;2024-02-28T07:59:43;45.27;;;21.37;;
809;SDS011;387;48.772;9.186;2024-02-28T08:02:09;38.37;;;20.67;;
809;SDS011;387;48.772;9.186;2024-02-28T08:04:37;44.17;;;20.43;;
809;SDS011;387;48.772;9.186;2024-02-28T08:07:03;41.73;;;20.87;;
809;SDS011;387;48.772;9.186;2024-02-28T08:09:29;50.73;;;21.40;;
809;SDS011;387;48.772;9.186;2024-02-28T08:11:55;49.17;;;21.80;;
809;SDS011;387;48.772;9.186;2024-02-28T08:14:22;44.90;;;21.50;;
809;SDS011;387;48.772;9.186;2024-02-28T08:16:48;49.27;;;21.87;;
809;SDS011;387;48.772;9.186;2024-02-28T08:19:14;48.83;;;21.90;;
809;SDS011;387;48.772;9.186;2024-02-28T08:21:39;49.20;;;22.67;;
809;SDS011;387;48.772;9.186;2024-02-28T08:24:05;43.20;;;22.07;;
809;SDS011;387;48.772;9.186;2024-02-28T08:26:31;50.13;;;22.43;;
809;SDS011;387;48.772;9.186;2024-02-28T08:28:57;52.13;;;22.57;;
809;SDS011;387;48.772;9.186;2024-02-28T08:31:22;48.73;;;23.77;;
809;SDS011;387;48.772;9.186;2024-02-28T08:33:48;52.90;;;23.20;;
809;SDS011;387;48.772;9.186;2024-02-28T08:36:13;49.43;;;22.77;;
809;SDS011;387;48.772;9.186;2024-02-28T08:38:40;59.13;;;23.27;;
809;SDS011;387;48.772;9.186;2024-02-28T08:41:06;49.80;;;22.77;;
809;SDS011;387;48.772;9.186;2024-02-28T08:43:33;48.50;;;22.13;;
809;SDS011;387;48.772;9.186;2024-02-28T08:46:02;44.90;;;23.30;;
809;SDS011;387;48.772;9.186;2024-02-28T08:48:28;43.75;;;22.10;;
809;SDS011;387;48.772;9.186;2024-02-28T08:50:54;50.70;;;22.97;;
809;SDS011;387;48.772;9.186;2024-02-28T08:53:19;50.90;;;23.50;;
809;SDS011;387;48.772;9.186;2024-02-28T08:55:45;48.10;;;24.20;;
809;SDS011;387;48.772;9.186;2024-02-28T08:58:11;44.37;;;20.93;;
809;SDS011;387;48.772;9.186;2024-02-28T09:00:37;52.03;;;24.03;;
809;SDS011;387;48.772;9.186;2024-02-28T09:03:03;45.50;;;20.90;;
809;SDS011;387;48.772;9.186;2024-02-28T09:05:29;43.43;;;19.13;;
809;SDS011;387;48.772;9.186;2024-02-28T09:07:55;35.87;;;18.37;;
809;SDS011;387;48.772;9.186;2024-02-28T09:10:22;44.00;;;18.33;;
809;SDS011;387;48.772;9.186;2024-02-28T09:12:49;50.37;;;19.90;;
809;SDS011;387;48.772;9.186;2024-02-28T09:15:15;46.63;;;20.23;;
809;SDS011;387;48.772;9.186;2024-02-28T09:17:44;40.77;;;20.60;;
809;SDS011;387;48.772;9.186;2024-02-28T09:20:11;40.10;;;18.57;;
809;SDS011;387;48.772;9.186;2024-02-28T09:22:37;43.67;;;20.17;;
809;SDS011;387;48.772;9.186;2024-02-28T09:25:03;36.47;;;17.13;;
809;SDS011;387;48.772;9.186;2024-02-28T09:27:30;39.87;;;18.10;;
809;SDS011;387;48.772;9.186;2024-02-28T09:29:56;39.80;;;17.77;;
809;SDS011;387;48.772;9.186;2024-02-28T09:32:21;43.57;;;19.37;;
809;SDS011;387;48.772;9.186;2024-02-28T09:34:47;34.57;;;18.00;;
809;SDS011;387;48.772;9.186;2024-02-28T09:37:13;44.53;;;20.30;;
809;SDS011;387;48.772;9.186;2024-02-28T09:39:39;47.40;;;20.23;;
809;SDS011;387;48.772;9.186;2024-02-28T09:42:06;40.57;;;18.50;;
809;SDS011;387;48.772;9.186;2024-02-28T09:44:33;36.47;;;17.07;;
809;SDS011;387;48.772;9.186;2024-02-28T09:47:01;38.40;;;17.83;;
809;SDS011;387;48.772;9.186;2024-02-28T09:49:27;45.10;;;18.67;;
809;SDS011;387;48.772;9.186;2024-02-28T09:51:56;40.70;;;19.17;;
809;SDS011;387;48.772;9.186;2024-02-28T09:54:23;38.73;;;20.87;;
809;SDS011;387;48.772;9.186;2024-02-28T09:56:49;40.90;;;18.53;;
809;SDS011;387;48.772;9.186;2024-02-28T09:59:17;40.47;;;19.10;;
809;SDS011;387;48.772;9.186;2024-02-28T10:01:43;38.20;;;18.83;;
809;SDS011;387;48.772;9.186;2024-02-28T10:04:12;37.70;;;18.27;;
809;SDS011;387;48.772;9.186;2024-02-28T10:06:41;34.23;;;16.57;;
809;SDS011;387;48.772;9.186;2024-02-28T10:09:09;34.73;;;17.53;;
809;SDS011;387;48.772;9.186;2024-02-28T10:11:35;28.77;;;14.97;;
809;SDS011;387;48.772;9.186;2024-02-28T10:14:01;25.40;;;13.37;;
809;SDS011;387;48.772;9.186;2024-02-28T10:16:27;28.50;;;13.47;;
809;SDS011;387;48.772;9.186;2024-02-28T10:18:53;31.57;;;15.80;;
809;SDS011;387;48.772;9.186;2024-02-28T10:21:18;30.90;;;14.53;;
809;SDS011;387;48.772;9.186;2024-02-28T10:23:44;33.57;;;16.13;;
809;SDS011;387;48.772;9.186;2024-02-28T10:26:13;32.37;;;16.37;;
809;SDS011;387;48.772;9.186;2024-02-28T10:28:39;31.57;;;16.13;;
809;SDS011;387;48.772;9.186;2024-02-28T10:31:06;38.00;;;14.87;;
809;SDS011;387;48.772;9.186;2024-02-28T10:33:35;32.57;;;15.07;;
809;SDS011;387;48.772;9.186;2024-02-28T10:36:04;39.07;;;17.30;;
809;SDS011;387;48.772;9.186;2024-02-28T10:38:30;36.27;;;15.83;;
809;SDS011;387;48.772;9.186;2024-02-28T10:40:58;33.53;;;15.00;;
809;SDS011;387;48.772;9.186;2024-02-28T10:43:30;38.47;;;17.00;;
809;SDS011;387;48.772;9.186;2024-02-28T10:45:59;29.33;;;14.90;;
809;SDS011;387;48.772;9.186;2024-02-28T10:48:26;33.63;;;15.23;;
809;SDS011;387;48.772;9.186;2024-02-28T10:50:52;32.67;;;15.17;;
809;SDS011;387;48.772;9.186;2024-02-28T10:53:22;31.77;;;15.50;;
809;SDS011;387;48.772;9.186;2024-02-28T10:55:54;28.03;;;14.00;;
809;SDS011;387;48.772;9.186;2024-02-28T10:58:24;33.23;;;16.70;;
809;SDS011;387;48.772;9.186;2024-02-28T11:00:58;35.43;;;17.07;;
809;SDS011;387;48.772;9.186;2024-02-28T11:03:24;35.77;;;16.60;;
809;SDS011;387;48.772;9.186;2024-02-28T11:05:50;32.23;;;15.90;;
809;SDS011;387;48.772;9.186;2024-02-28T11:08:23;32.67;;;15.33;;
809;SDS011;387;48.772;9.186;2024-02-28T11:13:26;35.67;;;17.83;;
809;SDS011;387;48.772;9.186;2024-02-28T11:15:52;37.63;;;19.03;;
809;SDS011;387;48.772;9.186;2024-02-28T11:18:22;31.97;;;15.90;;
809;SDS011;387;48.772;9.186;2024-02-28T11:20:47;32.50;;;14.97;;
809;SDS011;387;48.772;9.186;2024-02-28T11:23:14;31.07;;;15.60;;
809;SDS011;387;48.772;9.186;2024-02-28T11:25:42;34.60;;;16.00;;
809;SDS011;387;48.772;9.186;2024-02-28T11:28:08;32.67;;;15.40;;
809;SDS011;387;48.772;9.186;2024-02-28T11:30:33;34.03;;;16.30;;
809;SDS011;387;48.772;9.186;2024-02-28T11:32:59;34.60;;;14.43;;
809;SDS011;387;48.772;9.186;2024-02-28T11:35:28;27.07;;;14.60;;
809;SDS011;387;48.772;9.186;2024-02-28T11:37:54;31.13;;;16.07;;
809;SDS011;387;48.772;9.186;2024-02-28T11:40:22;39.83;;;18.13;;
809;SDS011;387;48.772;9.186;2024-02-28T11:42:54;32.80;;;16.70;;
809;SDS011;387;48.772;9.186;2024-02-28T11:45:22;40.10;;;18.33;;
809;SDS011;387;48.772;9.186;2024-02-28T11:47:48;36.53;;;16.70;;
809;SDS011;387;48.772;9.186;2024-02-28T11:50:14;34.70;;;16.97;;
809;SDS011;387;48.772;9.186;2024-02-28T11:52:39;41.00;;;18.30;;
809;SDS011;387;48.772;9.186;2024-02-28T11:55:05;38.13;;;17.70;;
809;SDS011;387;48.772;9.186;2024-02-28T11:57:31;46.10;;;18.33;;
809;SDS011;387;48.772;9.186;2024-02-28T12:00:07;36.67;;;17.50;;
809;SDS011;387;48.772;9.186;2024-02-28T12:02:37;33.23;;;16.33;;
809;SDS011;387;48.772;9.186;2024-02-28T12:05:03;39.77;;;17.70;;
809;SDS011;387;48.772;9.186;2024-02-28T12:07:29;33.33;;;16.60;;
809;SDS011;387;48.772;9.186;2024-02-28T12:09:55;41.40;;;18.00;;
809;SDS011;387;48.772;9.186;2024-02-28T12:12:21;41.20;;;17.80;;
809;SDS011;387;48.772;9.186;2024-02-28T12:14:49;38.87;;;17.90;;
809;SDS011;387;48.772;9.186;2024-02-28T12:17:15;42.07;;;18.73;;
809;SDS011;387;48.772;9.186;2024-02-28T12:19:41;36.23;;;17.50;;
809;SDS011;387;48.772;9.186;2024-02-28T12:22:07;44.60;;;18.30;;
809;SDS011;387;48.772;9.186;2024-02-28T12:24:33;38.43;;;17.13;;
809;SDS011;387;48.772;9.186;2024-02-28T12:26:59;36.57;;;18.27;;
809;SDS011;387;48.772;9.186;2024-02-28T12:29:24;45.07;;;19.30;;
809;SDS011;387;48.772;9.186;2024-02-28T12:31:50;41.40;;;18.83;;
809;SDS011;387;48.772;9.186;2024-02-28T12:34:16;37.67;;;18.73;;
809;SDS011;387;48.772;9.186;2024-02-28T12:36:42;40.17;;;17.37;;
809;SDS011;387;48.772;9.186;2024-02-28T12:39:08;38.80;;;19.03;;
809;SDS011;387;48.772;9.186;2024-02-28T12:41:37;41.27;;;18.27;;
809;SDS011;387;48.772;9.186;2024-02-28T12:44:03;36.20;;;17.43;;
809;SDS011;387;48.772;9.186;2024-02-28T12:46:30;39.60;;;17.57;;
809;SDS011;387;48.772;9.186;2024-02-28T12:48:56;45.03;;;18.80;;
809;SDS011;387;48.772;9.186;2024-02-28T12:51:41;34.53;;;17.77;;
809;SDS011;387;48.772;9.186;2024-02-28T12:54:08;41.20;;;19.13;;
809;SDS011;387;48.772;9.186;2024-02-28T12:56:35;42.80;;;19.87;;
809;SDS011;387;48.772;9.186;2024-02-28T12:59:02;37.40;;;17.50;;
809;SDS011;387;48.772;9.186;2024-02-28T13:01:28;36.90;;;17.43;;
809;SDS011;387;48.772;9.186;2024-02-28T13:03:55;40.17;;;16.27;;
809;SDS011;387;48.772;9.186;2024-02-28T13:06:21;36.33;;;18.07;;
809;SDS011;387;48.772;9.186;2024-02-28T13:08:47;42.20;;;18.27;;
809;SDS011;387;48.772;9.186;2024-02-28T13:11:19;46.13;;;20.70;;
809;SDS011;387;48.772;9.186;2024-02-28T13:13:46;42.77;;;18.60;;
809;SDS011;387;48.772;9.186;2024-02-28T13:16:16;39.13;;;17.47;;
809;SDS011;387;48.772;9.186;2024-02-28T13:18:43;38.90;;;17.90;;
809;SDS011;387;48.772;9.186;2024-02-28T13:21:09;41.63;;;18.50;;
809;SDS011;387;48.772;9.186;2024-02-28T13:23:35;38.83;;;16.77;;
809;SDS011;387;48.772;9.186;2024-02-28T13:26:02;47.80;;;20.23;;
809;SDS011;387;48.772;9.186;2024-02-28T13:28:28;37.63;;;18.03;;
809;SDS011;387;48.772;9.186;2024-02-28T13:31:03;41.03;;;18.13;;
809;SDS011;387;48.772;9.186;2024-02-28T13:33:29;41.80;;;18.80;;
809;SDS011;387;48.772;9.186;2024-02-28T13:35:55;42.33;;;19.17;;
809;SDS011;387;48.772;9.186;2024-02-28T13:38:20;39.90;;;17.60;;
809;SDS011;387;48.772;9.186;2024-02-28T13:40:46;34.57;;;15.97;;
809;SDS011;387;48.772;9.186;2024-02-28T13:43:13;38.20;;;18.00;;
809;SDS011;387;48.772;9.186;2024-02-28T13:45:38;41.70;;;17.80;;
809;SDS011;387;48.772;9.186;2024-02-28T13:48:17;37.80;;;17.47;;
809;SDS011;387;48.772;9.186;2024-02-28T13:50:45;34.97;;;17.30;;
809;SDS011;387;48.772;9.186;2024-02-28T13:53:12;35.40;;;16.97;;
809;SDS011;387;48.772;9.186;2024-02-28T13:55:40;33.80;;;16.10;;
809;SDS011;387;48.772;9.186;2024-02-28T13:58:08;36.37;;;16.80;;
809;SDS011;387;48.772;9.186;2024-02-28T14:00:34;42.93;;;18.93;;
809;SDS011;387;48.772;9.186;2024-02-28T14:03:01;39.17;;;18.07;;
809;SDS011;387;48.772;9.186;2024-02-28T14:05:27;37.57;;;17.63;;
809;SDS011;387;48.772;9.186;2024-02-28T14:07:53;41.83;;;17.20;;
809;SDS011;387;48.772;9.186;2024-02-28T14:10:19;32.83;;;16.60;;
809;SDS011;387;48.772;9.186;2024-02-28T14:12:46;38.20;;;17.57;;
809;SDS011;387;48.772;9.186;2024-02-28T14:15:12;37.37;;;18.77;;
809;SDS011;387;48.772;9.186;2024-02-28T14:17:38;45.33;;;19.23;;
809;SDS011;387;48.772;9.186;2024-02-28T14:20:04;43.30;;;17.63;;
809;SDS011;387;48.772;9.186;2024-02-28T14:22:31;38.87;;;17.20;;
809;SDS011;387;48.772;9.186;2024-02-28T14:24:57;46.10;;;20.30;;
809;SDS011;387;48.772;9.186;2024-02-28T14:27:24;44.97;;;20.03;;
809;SDS011;387;48.772;9.186;2024-02-28T14:29:54;40.70;;;18.90;;
809;SDS011;387;48.772;9.186;2024-02-28T14:32:20;45.80;;;18.87;;
809;SDS011;387;48.772;9.186;2024-02-28T14:34:46;39.17;;;19.40;;
809;SDS011;387;48.772;9.186;2024-02-28T14:37:13;37.67;;;17.50;;
809;SDS011;387;48.772;9.186;2024-02-28T14:39:39;38.37;;;18.23;;
809;SDS011;387;48.772;9.186;2024-02-28T14:42:05;40.03;;;19.00;;
809;SDS011;387;48.772;9.186;2024-02-28T14:44:33;36.50;;;16.87;;
809;SDS011;387;48.772;9.186;2024-02-28T14:46:59;41.00;;;18.63;;
809;SDS011;387;48.772;9.186;2024-02-28T14:49:25;43.63;;;19.27;;
809;SDS011;387;48.772;9.186;2024-02-28T14:51:50;45.17;;;19.77;;
809;SDS011;387;48.772;9.186;2024-02-28T14:54:16;37.70;;;18.03;;
809;SDS011;387;48.772;9.186;2024-02-28T14:56:42;46.77;;;20.13;;
809;SDS011;387;48.772;9.186;2024-02-28T14:59:08;36.53;;;16.67;;
809;SDS011;387;48.772;9.186;2024-02-28T15:01:34;41.30;;;18.90;;
809;SDS011;387;48.772;9.186;2024-02-28T15:04:00;38.20;;;18.63;;
809;SDS011;387;48.772;9.186;2024-02-28T15:06:26;42.60;;;19.77;;
809;SDS011;387;48.772;9.186;2024-02-28T15:08:52;42.40;;;20.50;;
809;SDS011;387;48.772;9.186;2024-02-28T15:11:17;41.80;;;18.97;;
809;SDS011;387;48.772;9.186;2024-02-28T15:13:44;42.00;;;18.60;;